CheckWX is a tool to help pilots better visualize weather data.  It is not intended as a substitute for an official pre-flight weather briefing.

14:40:38 UTC

KIWD METAR
Gogebic-Iron County Airport
Ironwood, Michigan, USA
Current

45 mins ago

KIWD 301356Z AUTO 34013G17KT 10SM OVC047 08/03 A3025 RMK AO2 SLP251 T00830028
Observed
May-30 @ 13:56 UTC
Wind
  • 340° at 13 KTS
  • Gusting to 17 KTS
Visibility
Flight Rules
VFR
Cloud Levels
  • Overcast at 4,700' AGL
Temperature
C / 46°F
Dewpoint
C / 37°F
Humidity
71%
Altimeter
30.25" Hg
Pressure
1024.42 hPa
Previous

2 hours ago

KIWD 301256Z AUTO 32009KT 10SM OVC049 08/03 A3023 RMK AO2 SLP244 T00830033
Observed
May-30 @ 12:56 UTC
Wind
  • 320° at 9 KTS
Visibility
Flight Rules
VFR
Cloud Levels
  • Overcast at 4,900' AGL
Temperature
C / 46°F
Dewpoint
C / 37°F
Humidity
71%
Altimeter
30.23" Hg
Pressure
1023.72 hPa
Previous

3 hours ago

KIWD 301156Z AUTO 33006KT 10SM OVC050 08/04 A3021 RMK AO2 SLP236 70004 T00830044 10100 20078 52020
Observed
May-30 @ 11:56 UTC
Wind
  • 330° at 6 KTS
Visibility
Flight Rules
VFR
Cloud Levels
  • Overcast at 5,000' AGL
Temperature
C / 46°F
Dewpoint
C / 39°F
Humidity
76%
Altimeter
30.21" Hg
Pressure
1023.02 hPa
24 Hour Rain
0.04"